sensor_id;sensor_type;location;lat;lon;timestamp;temperature;humidity
13186;DHT22;6658;53.080;7.428;2024-03-08T00:02:16;2.10;99.90
13186;DHT22;6658;53.080;7.428;2024-03-08T00:04:42;2.10;99.90
13186;DHT22;6658;53.080;7.428;2024-03-08T00:07:08;2.10;99.90
13186;DHT22;6658;53.080;7.428;2024-03-08T00:09:33;2.10;99.90
13186;DHT22;6658;53.080;7.428;2024-03-08T00:11:59;2.10;99.90
13186;DHT22;6658;53.080;7.428;2024-03-08T00:14:25;2.10;99.90
13186;DHT22;6658;53.080;7.428;2024-03-08T00:16:50;2.10;99.90
13186;DHT22;6658;53.080;7.428;2024-03-08T00:19:19;2.10;99.90
13186;DHT22;6658;53.080;7.428;2024-03-08T00:21:45;2.10;99.90
13186;DHT22;6658;53.080;7.428;2024-03-08T00:24:11;2.10;99.90
13186;DHT22;6658;53.080;7.428;2024-03-08T00:26:37;2.10;99.90
13186;DHT22;6658;53.080;7.428;2024-03-08T00:29:03;2.10;99.90
13186;DHT22;6658;53.080;7.428;2024-03-08T00:31:29;2.10;99.90
13186;DHT22;6658;53.080;7.428;2024-03-08T00:33:56;2.10;99.90
13186;DHT22;6658;53.080;7.428;2024-03-08T00:36:22;2.10;99.90
13186;DHT22;6658;53.080;7.428;2024-03-08T00:38:48;2.00;99.90
13186;DHT22;6658;53.080;7.428;2024-03-08T00:41:14;2.00;99.90
13186;DHT22;6658;53.080;7.428;2024-03-08T00:43:39;2.00;99.90
13186;DHT22;6658;53.080;7.428;2024-03-08T00:46:05;2.00;99.90
13186;DHT22;6658;53.080;7.428;2024-03-08T00:48:31;2.00;99.90
13186;DHT22;6658;53.080;7.428;2024-03-08T00:50:57;2.00;99.90
13186;DHT22;6658;53.080;7.428;2024-03-08T00:53:22;2.00;99.90
13186;DHT22;6658;53.080;7.428;2024-03-08T00:55:48;1.90;99.90
13186;DHT22;6658;53.080;7.428;2024-03-08T00:58:14;1.90;99.90
13186;DHT22;6658;53.080;7.428;2024-03-08T01:00:40;1.90;99.90
13186;DHT22;6658;53.080;7.428;2024-03-08T01:03:05;1.80;99.90
13186;DHT22;6658;53.080;7.428;2024-03-08T01:05:32;1.80;99.90
13186;DHT22;6658;53.080;7.428;2024-03-08T01:07:58;1.80;99.90
13186;DHT22;6658;53.080;7.428;2024-03-08T01:10:23;1.80;99.90
13186;DHT22;6658;53.080;7.428;2024-03-08T01:12:49;1.80;99.90
13186;DHT22;6658;53.080;7.428;2024-03-08T01:15:20;1.70;99.90
13186;DHT22;6658;53.080;7.428;2024-03-08T01:17:45;1.70;99.90
13186;DHT22;6658;53.080;7.428;2024-03-08T01:20:11;1.60;99.90
13186;DHT22;6658;53.080;7.428;2024-03-08T01:22:38;1.60;99.90
13186;DHT22;6658;53.080;7.428;2024-03-08T01:25:04;1.50;99.90
13186;DHT22;6658;53.080;7.428;2024-03-08T01:27:30;1.50;99.90
13186;DHT22;6658;53.080;7.428;2024-03-08T01:29:56;1.50;99.90
13186;DHT22;6658;53.080;7.428;2024-03-08T01:32:22;1.40;99.90
13186;DHT22;6658;53.080;7.428;2024-03-08T01:34:49;1.40;99.90
13186;DHT22;6658;53.080;7.428;2024-03-08T01:37:14;1.40;99.90
13186;DHT22;6658;53.080;7.428;2024-03-08T01:39:40;1.40;99.90
13186;DHT22;6658;53.080;7.428;2024-03-08T01:42:06;1.30;99.90
13186;DHT22;6658;53.080;7.428;2024-03-08T01:44:31;1.30;99.90
13186;DHT22;6658;53.080;7.428;2024-03-08T01:46:57;1.30;99.90
13186;DHT22;6658;53.080;7.428;2024-03-08T01:49:24;1.30;99.90
13186;DHT22;6658;53.080;7.428;2024-03-08T01:51:52;1.20;99.90
13186;DHT22;6658;53.080;7.428;2024-03-08T01:54:19;1.30;99.90
13186;DHT22;6658;53.080;7.428;2024-03-08T01:56:46;1.20;99.90
13186;DHT22;6658;53.080;7.428;2024-03-08T01:59:12;1.20;99.90
13186;DHT22;6658;53.080;7.428;2024-03-08T02:01:39;1.20;99.90
13186;DHT22;6658;53.080;7.428;2024-03-08T02:04:05;1.20;99.90
13186;DHT22;6658;53.080;7.428;2024-03-08T02:06:32;1.10;99.90
13186;DHT22;6658;53.080;7.428;2024-03-08T02:09:00;1.00;99.90
13186;DHT22;6658;53.080;7.428;2024-03-08T02:11:26;1.00;99.90
13186;DHT22;6658;53.080;7.428;2024-03-08T02:13:52;1.00;99.90
13186;DHT22;6658;53.080;7.428;2024-03-08T02:16:21;1.00;99.90
13186;DHT22;6658;53.080;7.428;2024-03-08T02:18:47;1.00;99.90
13186;DHT22;6658;53.080;7.428;2024-03-08T02:21:13;1.00;99.90
13186;DHT22;6658;53.080;7.428;2024-03-08T02:23:43;1.10;99.90
13186;DHT22;6658;53.080;7.428;2024-03-08T02:26:09;1.00;99.90
13186;DHT22;6658;53.080;7.428;2024-03-08T02:28:36;1.10;99.90
13186;DHT22;6658;53.080;7.428;2024-03-08T02:31:02;1.10;99.90
13186;DHT22;6658;53.080;7.428;2024-03-08T02:33:28;1.00;99.90
13186;DHT22;6658;53.080;7.428;2024-03-08T02:35:54;1.00;99.90
13186;DHT22;6658;53.080;7.428;2024-03-08T02:38:22;1.10;99.90
13186;DHT22;6658;53.080;7.428;2024-03-08T02:40:50;1.10;99.90
13186;DHT22;6658;53.080;7.428;2024-03-08T02:43:17;1.00;99.90
13186;DHT22;6658;53.080;7.428;2024-03-08T02:45:43;1.00;99.90
13186;DHT22;6658;53.080;7.428;2024-03-08T02:48:11;1.00;99.90
13186;DHT22;6658;53.080;7.428;2024-03-08T02:50:37;1.10;99.90
13186;DHT22;6658;53.080;7.428;2024-03-08T02:53:05;1.10;99.90
13186;DHT22;6658;53.080;7.428;2024-03-08T02:55:31;1.20;99.90
13186;DHT22;6658;53.080;7.428;2024-03-08T02:57:57;1.20;99.90
13186;DHT22;6658;53.080;7.428;2024-03-08T03:00:23;1.20;99.90
13186;DHT22;6658;53.080;7.428;2024-03-08T03:02:50;1.20;99.90
13186;DHT22;6658;53.080;7.428;2024-03-08T03:05:23;1.20;99.90
13186;DHT22;6658;53.080;7.428;2024-03-08T03:07:49;1.20;99.90
13186;DHT22;6658;53.080;7.428;2024-03-08T03:10:17;1.20;99.90
13186;DHT22;6658;53.080;7.428;2024-03-08T03:12:43;1.10;99.90
13186;DHT22;6658;53.080;7.428;2024-03-08T03:15:10;1.10;99.90
13186;DHT22;6658;53.080;7.428;2024-03-08T03:17:37;1.00;99.90
13186;DHT22;6658;53.080;7.428;2024-03-08T03:20:05;1.10;99.90
13186;DHT22;6658;53.080;7.428;2024-03-08T03:22:36;1.00;99.90
13186;DHT22;6658;53.080;7.428;2024-03-08T03:25:03;1.00;99.90
13186;DHT22;6658;53.080;7.428;2024-03-08T03:27:29;1.10;99.90
13186;DHT22;6658;53.080;7.428;2024-03-08T03:29:56;1.10;99.90
13186;DHT22;6658;53.080;7.428;2024-03-08T03:32:23;1.10;99.90
13186;DHT22;6658;53.080;7.428;2024-03-08T03:34:49;1.10;99.90
13186;DHT22;6658;53.080;7.428;2024-03-08T03:37:19;1.00;99.90
13186;DHT22;6658;53.080;7.428;2024-03-08T03:39:45;1.00;99.90
13186;DHT22;6658;53.080;7.428;2024-03-08T03:42:18;0.90;99.90
13186;DHT22;6658;53.080;7.428;2024-03-08T03:44:47;0.90;99.90
13186;DHT22;6658;53.080;7.428;2024-03-08T03:47:13;0.80;99.90
13186;DHT22;6658;53.080;7.428;2024-03-08T03:49:43;0.80;99.90
13186;DHT22;6658;53.080;7.428;2024-03-08T03:52:11;0.80;99.90
13186;DHT22;6658;53.080;7.428;2024-03-08T03:54:37;0.80;99.90
13186;DHT22;6658;53.080;7.428;2024-03-08T03:57:04;0.90;99.90
13186;DHT22;6658;53.080;7.428;2024-03-08T03:59:32;0.90;99.90
13186;DHT22;6658;53.080;7.428;2024-03-08T04:01:58;0.90;99.90
13186;DHT22;6658;53.080;7.428;2024-03-08T04:04:23;0.90;99.90
13186;DHT22;6658;53.080;7.428;2024-03-08T04:06:50;0.90;99.90
13186;DHT22;6658;53.080;7.428;2024-03-08T04:09:16;0.80;99.90
13186;DHT22;6658;53.080;7.428;2024-03-08T04:11:44;0.80;99.90
13186;DHT22;6658;53.080;7.428;2024-03-08T04:14:10;0.80;99.90
13186;DHT22;6658;53.080;7.428;2024-03-08T04:16:37;0.70;99.90
13186;DHT22;6658;53.080;7.428;2024-03-08T04:19:02;0.60;99.90
13186;DHT22;6658;53.080;7.428;2024-03-08T04:21:32;0.50;99.90
13186;DHT22;6658;53.080;7.428;2024-03-08T04:23:58;0.40;99.90
13186;DHT22;6658;53.080;7.428;2024-03-08T04:26:24;0.40;99.90
13186;DHT22;6658;53.080;7.428;2024-03-08T04:28:51;0.40;99.90
13186;DHT22;6658;53.080;7.428;2024-03-08T04:31:17;0.40;99.90
13186;DHT22;6658;53.080;7.428;2024-03-08T04:33:43;0.50;99.90
13186;DHT22;6658;53.080;7.428;2024-03-08T04:36:10;0.50;99.90
13186;DHT22;6658;53.080;7.428;2024-03-08T04:38:39;0.40;99.90
13186;DHT22;6658;53.080;7.428;2024-03-08T04:41:06;0.40;99.90
13186;DHT22;6658;53.080;7.428;2024-03-08T04:43:33;0.30;99.90
13186;DHT22;6658;53.080;7.428;2024-03-08T04:45:59;0.20;99.90
13186;DHT22;6658;53.080;7.428;2024-03-08T04:48:24;0.20;99.90
13186;DHT22;6658;53.080;7.428;2024-03-08T04:50:52;0.20;99.90
13186;DHT22;6658;53.080;7.428;2024-03-08T04:53:19;0.20;99.90
13186;DHT22;6658;53.080;7.428;2024-03-08T04:55:45;0.20;99.90
13186;DHT22;6658;53.080;7.428;2024-03-08T04:58:10;0.20;99.90
13186;DHT22;6658;53.080;7.428;2024-03-08T05:00:36;0.30;99.90
13186;DHT22;6658;53.080;7.428;2024-03-08T05:03:02;0.30;99.90
13186;DHT22;6658;53.080;7.428;2024-03-08T05:05:28;0.30;99.90
13186;DHT22;6658;53.080;7.428;2024-03-08T05:07:54;0.40;99.90
13186;DHT22;6658;53.080;7.428;2024-03-08T05:10:20;0.40;99.90
13186;DHT22;6658;53.080;7.428;2024-03-08T05:12:46;0.50;99.90
13186;DHT22;6658;53.080;7.428;2024-03-08T05:15:11;0.50;99.90
13186;DHT22;6658;53.080;7.428;2024-03-08T05:17:37;0.50;99.90
13186;DHT22;6658;53.080;7.428;2024-03-08T05:20:03;0.60;99.90
13186;DHT22;6658;53.080;7.428;2024-03-08T05:22:33;0.60;99.90
13186;DHT22;6658;53.080;7.428;2024-03-08T05:24:59;0.60;99.90
13186;DHT22;6658;53.080;7.428;2024-03-08T05:27:25;0.60;99.90
13186;DHT22;6658;53.080;7.428;2024-03-08T05:29:51;0.60;99.90
13186;DHT22;6658;53.080;7.428;2024-03-08T05:32:16;0.60;99.90
13186;DHT22;6658;53.080;7.428;2024-03-08T05:34:42;0.60;99.90
13186;DHT22;6658;53.080;7.428;2024-03-08T05:37:09;0.70;99.90
13186;DHT22;6658;53.080;7.428;2024-03-08T05:39:36;0.70;99.90
13186;DHT22;6658;53.080;7.428;2024-03-08T05:42:02;0.70;99.90
13186;DHT22;6658;53.080;7.428;2024-03-08T05:44:28;0.70;99.90
13186;DHT22;6658;53.080;7.428;2024-03-08T05:46:56;0.70;99.90
13186;DHT22;6658;53.080;7.428;2024-03-08T05:49:22;0.70;99.90
13186;DHT22;6658;53.080;7.428;2024-03-08T05:51:48;0.70;99.90
13186;DHT22;6658;53.080;7.428;2024-03-08T05:54:13;0.70;99.90
13186;DHT22;6658;53.080;7.428;2024-03-08T05:56:40;0.70;99.90
13186;DHT22;6658;53.080;7.428;2024-03-08T05:59:09;0.70;99.90
13186;DHT22;6658;53.080;7.428;2024-03-08T06:01:35;0.60;99.90
13186;DHT22;6658;53.080;7.428;2024-03-08T06:04:02;0.60;99.90
13186;DHT22;6658;53.080;7.428;2024-03-08T06:06:28;0.60;99.90
13186;DHT22;6658;53.080;7.428;2024-03-08T06:08:55;0.60;99.90
13186;DHT22;6658;53.080;7.428;2024-03-08T06:11:24;0.70;99.90
13186;DHT22;6658;53.080;7.428;2024-03-08T06:13:52;0.70;99.90
13186;DHT22;6658;53.080;7.428;2024-03-08T06:16:20;0.70;99.90
13186;DHT22;6658;53.080;7.428;2024-03-08T06:18:46;0.70;99.90
13186;DHT22;6658;53.080;7.428;2024-03-08T06:21:12;0.70;99.90
13186;DHT22;6658;53.080;7.428;2024-03-08T06:23:38;0.70;99.90
13186;DHT22;6658;53.080;7.428;2024-03-08T06:26:07;0.70;99.90
13186;DHT22;6658;53.080;7.428;2024-03-08T06:28:33;0.70;99.90
13186;DHT22;6658;53.080;7.428;2024-03-08T06:31:00;0.70;99.90
13186;DHT22;6658;53.080;7.428;2024-03-08T06:33:26;0.70;99.90
13186;DHT22;6658;53.080;7.428;2024-03-08T06:35:55;0.70;99.90
13186;DHT22;6658;53.080;7.428;2024-03-08T06:38:24;0.70;99.90
13186;DHT22;6658;53.080;7.428;2024-03-08T06:40:51;0.80;99.90
13186;DHT22;6658;53.080;7.428;2024-03-08T06:43:17;0.80;99.90
13186;DHT22;6658;53.080;7.428;2024-03-08T06:45:44;0.80;99.90
13186;DHT22;6658;53.080;7.428;2024-03-08T06:48:18;0.90;99.90
13186;DHT22;6658;53.080;7.428;2024-03-08T06:50:44;0.90;99.90
13186;DHT22;6658;53.080;7.428;2024-03-08T06:53:11;1.00;99.90
13186;DHT22;6658;53.080;7.428;2024-03-08T06:55:36;1.00;99.90
13186;DHT22;6658;53.080;7.428;2024-03-08T06:58:02;1.00;99.90
13186;DHT22;6658;53.080;7.428;2024-03-08T07:00:28;1.10;99.90
13186;DHT22;6658;53.080;7.428;2024-03-08T07:02:56;1.10;99.90
13186;DHT22;6658;53.080;7.428;2024-03-08T07:05:26;1.10;99.90
13186;DHT22;6658;53.080;7.428;2024-03-08T07:07:52;1.20;99.90
13186;DHT22;6658;53.080;7.428;2024-03-08T07:10:20;1.20;99.90
13186;DHT22;6658;53.080;7.428;2024-03-08T07:12:46;1.20;99.90
13186;DHT22;6658;53.080;7.428;2024-03-08T07:15:12;1.30;99.90
13186;DHT22;6658;53.080;7.428;2024-03-08T07:17:41;1.30;99.90
13186;DHT22;6658;53.080;7.428;2024-03-08T07:20:10;1.40;99.90
13186;DHT22;6658;53.080;7.428;2024-03-08T07:22:38;1.50;99.90
13186;DHT22;6658;53.080;7.428;2024-03-08T07:25:07;1.50;99.90
13186;DHT22;6658;53.080;7.428;2024-03-08T07:27:35;1.60;99.90
13186;DHT22;6658;53.080;7.428;2024-03-08T07:30:02;1.60;99.90
13186;DHT22;6658;53.080;7.428;2024-03-08T07:32:28;1.70;99.90
13186;DHT22;6658;53.080;7.428;2024-03-08T07:34:55;1.70;99.90
13186;DHT22;6658;53.080;7.428;2024-03-08T07:37:21;1.80;99.90
13186;DHT22;6658;53.080;7.428;2024-03-08T07:39:47;1.80;99.90
13186;DHT22;6658;53.080;7.428;2024-03-08T07:42:16;1.90;99.90
13186;DHT22;6658;53.080;7.428;2024-03-08T07:44:51;1.90;99.90
13186;DHT22;6658;53.080;7.428;2024-03-08T07:47:18;2.00;99.90
13186;DHT22;6658;53.080;7.428;2024-03-08T07:49:43;2.00;99.90
13186;DHT22;6658;53.080;7.428;2024-03-08T07:52:09;2.10;99.90
13186;DHT22;6658;53.080;7.428;2024-03-08T07:54:41;2.10;99.90
13186;DHT22;6658;53.080;7.428;2024-03-08T07:57:06;2.20;99.90
13186;DHT22;6658;53.080;7.428;2024-03-08T07:59:32;2.20;99.90
13186;DHT22;6658;53.080;7.428;2024-03-08T08:01:58;2.30;99.90
13186;DHT22;6658;53.080;7.428;2024-03-08T08:04:25;2.40;99.90
13186;DHT22;6658;53.080;7.428;2024-03-08T08:07:00;2.40;99.90
13186;DHT22;6658;53.080;7.428;2024-03-08T08:09:26;2.50;99.90
13186;DHT22;6658;53.080;7.428;2024-03-08T08:12:00;2.60;99.90
13186;DHT22;6658;53.080;7.428;2024-03-08T08:14:28;2.60;99.90
13186;DHT22;6658;53.080;7.428;2024-03-08T08:16:54;2.70;99.90
13186;DHT22;6658;53.080;7.428;2024-03-08T08:19:22;2.70;99.90
13186;DHT22;6658;53.080;7.428;2024-03-08T08:21:48;2.80;99.90
13186;DHT22;6658;53.080;7.428;2024-03-08T08:24:14;2.80;99.90
13186;DHT22;6658;53.080;7.428;2024-03-08T08:26:40;2.80;99.90
13186;DHT22;6658;53.080;7.428;2024-03-08T08:29:07;2.80;99.90
13186;DHT22;6658;53.080;7.428;2024-03-08T08:31:32;2.90;99.90
13186;DHT22;6658;53.080;7.428;2024-03-08T08:33:58;2.90;99.90
13186;DHT22;6658;53.080;7.428;2024-03-08T08:36:34;3.00;99.90
13186;DHT22;6658;53.080;7.428;2024-03-08T08:39:00;3.00;99.90
13186;DHT22;6658;53.080;7.428;2024-03-08T08:41:41;3.00;99.90
13186;DHT22;6658;53.080;7.428;2024-03-08T08:44:07;3.10;99.90
13186;DHT22;6658;53.080;7.428;2024-03-08T08:46:40;3.10;99.90
13186;DHT22;6658;53.080;7.428;2024-03-08T08:49:09;3.10;99.90
13186;DHT22;6658;53.080;7.428;2024-03-08T08:51:40;3.10;99.90
13186;DHT22;6658;53.080;7.428;2024-03-08T08:54:08;3.10;99.90
13186;DHT22;6658;53.080;7.428;2024-03-08T08:56:35;3.20;99.90
13186;DHT22;6658;53.080;7.428;2024-03-08T08:59:01;3.10;99.90
13186;DHT22;6658;53.080;7.428;2024-03-08T09:01:26;3.20;99.90
13186;DHT22;6658;53.080;7.428;2024-03-08T09:03:52;3.20;99.90
13186;DHT22;6658;53.080;7.428;2024-03-08T09:06:19;3.20;99.90
13186;DHT22;6658;53.080;7.428;2024-03-08T09:08:45;3.20;99.90
13186;DHT22;6658;53.080;7.428;2024-03-08T09:11:11;3.30;99.90
13186;DHT22;6658;53.080;7.428;2024-03-08T09:13:37;3.50;99.90
13186;DHT22;6658;53.080;7.428;2024-03-08T09:16:03;3.50;99.90
13186;DHT22;6658;53.080;7.428;2024-03-08T09:18:31;3.50;99.90
13186;DHT22;6658;53.080;7.428;2024-03-08T09:20:58;3.50;99.90
13186;DHT22;6658;53.080;7.428;2024-03-08T09:23:25;3.60;99.90
13186;DHT22;6658;53.080;7.428;2024-03-08T09:25:58;3.70;99.90
13186;DHT22;6658;53.080;7.428;2024-03-08T09:28:24;3.70;99.90
13186;DHT22;6658;53.080;7.428;2024-03-08T09:30:50;3.80;99.90
13186;DHT22;6658;53.080;7.428;2024-03-08T09:33:16;4.00;99.90
13186;DHT22;6658;53.080;7.428;2024-03-08T09:35:48;4.00;99.90
13186;DHT22;6658;53.080;7.428;2024-03-08T09:38:14;3.90;99.90
13186;DHT22;6658;53.080;7.428;2024-03-08T09:40:43;4.00;99.90
13186;DHT22;6658;53.080;7.428;2024-03-08T09:43:10;4.10;99.90
13186;DHT22;6658;53.080;7.428;2024-03-08T09:45:37;4.10;99.90
13186;DHT22;6658;53.080;7.428;2024-03-08T09:48:13;4.20;99.90
13186;DHT22;6658;53.080;7.428;2024-03-08T09:50:41;4.30;99.90
13186;DHT22;6658;53.080;7.428;2024-03-08T09:53:07;4.30;99.90
13186;DHT22;6658;53.080;7.428;2024-03-08T09:55:39;4.40;99.90
13186;DHT22;6658;53.080;7.428;2024-03-08T09:58:16;5.60;99.90
13186;DHT22;6658;53.080;7.428;2024-03-08T10:00:48;6.60;99.90
13186;DHT22;6658;53.080;7.428;2024-03-08T10:03:13;7.10;99.90
13186;DHT22;6658;53.080;7.428;2024-03-08T10:05:42;7.30;99.90
13186;DHT22;6658;53.080;7.428;2024-03-08T10:08:10;7.50;99.90
13186;DHT22;6658;53.080;7.428;2024-03-08T10:10:42;6.70;99.90
13186;DHT22;6658;53.080;7.428;2024-03-08T10:13:09;6.00;99.90
13186;DHT22;6658;53.080;7.428;2024-03-08T10:15:42;5.80;99.90
13186;DHT22;6658;53.080;7.428;2024-03-08T10:18:08;5.50;99.90
13186;DHT22;6658;53.080;7.428;2024-03-08T10:20:35;5.40;99.90
13186;DHT22;6658;53.080;7.428;2024-03-08T10:23:01;5.40;99.90
13186;DHT22;6658;53.080;7.428;2024-03-08T10:25:31;5.40;99.90
13186;DHT22;6658;53.080;7.428;2024-03-08T10:27:57;5.40;99.90
13186;DHT22;6658;53.080;7.428;2024-03-08T10:30:23;5.40;99.90
13186;DHT22;6658;53.080;7.428;2024-03-08T10:32:49;5.60;99.90
13186;DHT22;6658;53.080;7.428;2024-03-08T10:35:15;5.60;99.90
13186;DHT22;6658;53.080;7.428;2024-03-08T10:37:47;5.70;99.90
13186;DHT22;6658;53.080;7.428;2024-03-08T10:40:17;5.60;99.90
13186;DHT22;6658;53.080;7.428;2024-03-08T10:45:39;5.90;99.90
13186;DHT22;6658;53.080;7.428;2024-03-08T10:48:28;5.80;99.90
13186;DHT22;6658;53.080;7.428;2024-03-08T10:50:57;5.90;99.90
13186;DHT22;6658;53.080;7.428;2024-03-08T10:53:27;5.90;99.90
13186;DHT22;6658;53.080;7.428;2024-03-08T10:55:53;6.10;99.90
13186;DHT22;6658;53.080;7.428;2024-03-08T10:58:21;6.40;99.90
13186;DHT22;6658;53.080;7.428;2024-03-08T11:00:48;6.50;99.90
13186;DHT22;6658;53.080;7.428;2024-03-08T11:06:18;6.60;99.90
13186;DHT22;6658;53.080;7.428;2024-03-08T11:08:49;6.80;99.90
13186;DHT22;6658;53.080;7.428;2024-03-08T11:11:31;6.90;99.90
13186;DHT22;6658;53.080;7.428;2024-03-08T11:14:01;7.10;99.90
13186;DHT22;6658;53.080;7.428;2024-03-08T11:21:36;7.20;99.90
13186;DHT22;6658;53.080;7.428;2024-03-08T11:24:13;7.20;99.90
13186;DHT22;6658;53.080;7.428;2024-03-08T11:26:40;7.30;99.90
13186;DHT22;6658;53.080;7.428;2024-03-08T11:29:33;7.30;99.90
13186;DHT22;6658;53.080;7.428;2024-03-08T11:32:12;7.30;99.90
13186;DHT22;6658;53.080;7.428;2024-03-08T11:34:41;7.30;99.90
13186;DHT22;6658;53.080;7.428;2024-03-08T11:37:14;7.50;99.90
13186;DHT22;6658;53.080;7.428;2024-03-08T11:39:49;7.60;99.90
13186;DHT22;6658;53.080;7.428;2024-03-08T11:42:15;7.60;99.90
13186;DHT22;6658;53.080;7.428;2024-03-08T11:44:43;7.50;99.90
13186;DHT22;6658;53.080;7.428;2024-03-08T11:47:13;7.60;99.90
13186;DHT22;6658;53.080;7.428;2024-03-08T11:49:41;7.50;99.90
13186;DHT22;6658;53.080;7.428;2024-03-08T11:52:13;7.50;99.90
13186;DHT22;6658;53.080;7.428;2024-03-08T11:54:42;7.50;99.90
13186;DHT22;6658;53.080;7.428;2024-03-08T11:57:11;7.60;99.90
13186;DHT22;6658;53.080;7.428;2024-03-08T11:59:37;7.60;99.90
13186;DHT22;6658;53.080;7.428;2024-03-08T12:02:04;7.70;99.90
13186;DHT22;6658;53.080;7.428;2024-03-08T12:04:31;7.60;99.90
13186;DHT22;6658;53.080;7.428;2024-03-08T12:07:00;7.60;99.90
13186;DHT22;6658;53.080;7.428;2024-03-08T12:09:37;7.60;99.90
13186;DHT22;6658;53.080;7.428;2024-03-08T12:12:04;7.70;99.90
13186;DHT22;6658;53.080;7.428;2024-03-08T12:14:33;7.70;99.90
13186;DHT22;6658;53.080;7.428;2024-03-08T12:16:59;7.80;99.90
13186;DHT22;6658;53.080;7.428;2024-03-08T12:19:30;7.80;99.90
13186;DHT22;6658;53.080;7.428;2024-03-08T12:21:55;8.00;99.90
13186;DHT22;6658;53.080;7.428;2024-03-08T12:24:21;8.00;99.90
13186;DHT22;6658;53.080;7.428;2024-03-08T12:26:48;8.10;99.90
13186;DHT22;6658;53.080;7.428;2024-03-08T12:29:24;8.20;99.90
13186;DHT22;6658;53.080;7.428;2024-03-08T12:31:54;8.30;99.90
13186;DHT22;6658;53.080;7.428;2024-03-08T12:34:19;8.30;99.90
13186;DHT22;6658;53.080;7.428;2024-03-08T12:36:47;8.20;99.90
13186;DHT22;6658;53.080;7.428;2024-03-08T12:39:17;8.30;99.90
13186;DHT22;6658;53.080;7.428;2024-03-08T12:42:09;8.30;99.90
13186;DHT22;6658;53.080;7.428;2024-03-08T12:44:35;8.50;99.90
13186;DHT22;6658;53.080;7.428;2024-03-08T12:47:00;8.40;99.90
13186;DHT22;6658;53.080;7.428;2024-03-08T12:49:27;8.40;99.90
13186;DHT22;6658;53.080;7.428;2024-03-08T12:51:52;8.60;99.90
13186;DHT22;6658;53.080;7.428;2024-03-08T12:54:18;8.70;99.90
13186;DHT22;6658;53.080;7.428;2024-03-08T12:56:49;8.80;99.90
13186;DHT22;6658;53.080;7.428;2024-03-08T12:59:17;8.50;99.90
13186;DHT22;6658;53.080;7.428;2024-03-08T13:01:43;8.50;99.90
13186;DHT22;6658;53.080;7.428;2024-03-08T13:04:12;8.40;99.90
13186;DHT22;6658;53.080;7.428;2024-03-08T13:06:38;8.40;99.90
13186;DHT22;6658;53.080;7.428;2024-03-08T13:09:04;8.40;99.90
13186;DHT22;6658;53.080;7.428;2024-03-08T13:11:31;8.40;99.90
13186;DHT22;6658;53.080;7.428;2024-03-08T13:14:05;8.40;99.90
13186;DHT22;6658;53.080;7.428;2024-03-08T13:16:39;8.50;99.90
13186;DHT22;6658;53.080;7.428;2024-03-08T13:19:08;8.50;99.90
13186;DHT22;6658;53.080;7.428;2024-03-08T13:21:34;8.60;99.90
13186;DHT22;6658;53.080;7.428;2024-03-08T13:24:04;8.60;99.90
13186;DHT22;6658;53.080;7.428;2024-03-08T13:26:30;8.60;99.90
13186;DHT22;6658;53.080;7.428;2024-03-08T13:29:02;8.50;99.90
13186;DHT22;6658;53.080;7.428;2024-03-08T13:31:32;8.50;99.90
13186;DHT22;6658;53.080;7.428;2024-03-08T13:33:59;8.50;99.90
13186;DHT22;6658;53.080;7.428;2024-03-08T13:36:25;8.50;99.90
13186;DHT22;6658;53.080;7.428;2024-03-08T13:39:01;8.50;99.90
13186;DHT22;6658;53.080;7.428;2024-03-08T13:41:29;8.50;99.90
13186;DHT22;6658;53.080;7.428;2024-03-08T13:44:01;8.60;99.90
13186;DHT22;6658;53.080;7.428;2024-03-08T13:46:27;8.50;99.90
13186;DHT22;6658;53.080;7.428;2024-03-08T13:48:56;8.60;99.90
13186;DHT22;6658;53.080;7.428;2024-03-08T13:51:22;8.60;99.90
13186;DHT22;6658;53.080;7.428;2024-03-08T13:53:50;8.60;99.90
13186;DHT22;6658;53.080;7.428;2024-03-08T13:56:16;8.50;99.90
13186;DHT22;6658;53.080;7.428;2024-03-08T13:58:42;8.40;99.90
13186;DHT22;6658;53.080;7.428;2024-03-08T14:01:18;8.50;99.90
13186;DHT22;6658;53.080;7.428;2024-03-08T14:03:50;8.50;99.90
13186;DHT22;6658;53.080;7.428;2024-03-08T14:06:16;8.50;99.90
13186;DHT22;6658;53.080;7.428;2024-03-08T14:08:42;8.40;99.90
13186;DHT22;6658;53.080;7.428;2024-03-08T14:11:13;8.40;99.90
13186;DHT22;6658;53.080;7.428;2024-03-08T14:13:43;8.40;99.90
13186;DHT22;6658;53.080;7.428;2024-03-08T14:16:12;8.40;99.90
13186;DHT22;6658;53.080;7.428;2024-03-08T14:18:38;8.40;99.90
13186;DHT22;6658;53.080;7.428;2024-03-08T14:21:07;8.40;99.90
13186;DHT22;6658;53.080;7.428;2024-03-08T14:23:43;8.40;99.90
13186;DHT22;6658;53.080;7.428;2024-03-08T14:26:09;8.50;99.90
13186;DHT22;6658;53.080;7.428;2024-03-08T14:28:35;8.60;99.90
13186;DHT22;6658;53.080;7.428;2024-03-08T14:31:15;8.50;99.90
13186;DHT22;6658;53.080;7.428;2024-03-08T14:33:45;8.50;99.90
13186;DHT22;6658;53.080;7.428;2024-03-08T14:36:15;8.50;99.90
13186;DHT22;6658;53.080;7.428;2024-03-08T14:38:43;8.50;99.90
13186;DHT22;6658;53.080;7.428;2024-03-08T14:41:14;8.60;99.90
13186;DHT22;6658;53.080;7.428;2024-03-08T14:43:48;8.60;99.90
13186;DHT22;6658;53.080;7.428;2024-03-08T14:46:14;8.70;99.90
13186;DHT22;6658;53.080;7.428;2024-03-08T14:48:43;8.60;99.90
13186;DHT22;6658;53.080;7.428;2024-03-08T14:51:13;8.60;99.90
13186;DHT22;6658;53.080;7.428;2024-03-08T14:53:42;8.60;99.90
13186;DHT22;6658;53.080;7.428;2024-03-08T14:56:10;8.60;99.90
13186;DHT22;6658;53.080;7.428;2024-03-08T14:58:45;8.60;99.90
13186;DHT22;6658;53.080;7.428;2024-03-08T15:01:33;8.60;99.90
13186;DHT22;6658;53.080;7.428;2024-03-08T15:04:07;8.60;99.90
13186;DHT22;6658;53.080;7.428;2024-03-08T15:06:40;8.60;99.90
13186;DHT22;6658;53.080;7.428;2024-03-08T15:09:06;8.60;99.90
13186;DHT22;6658;53.080;7.428;2024-03-08T15:11:48;8.60;99.90
13186;DHT22;6658;53.080;7.428;2024-03-08T15:14:17;8.60;99.90
13186;DHT22;6658;53.080;7.428;2024-03-08T15:16:45;8.60;99.90
13186;DHT22;6658;53.080;7.428;2024-03-08T15:19:13;8.60;99.90
13186;DHT22;6658;53.080;7.428;2024-03-08T15:21:46;8.60;99.90
13186;DHT22;6658;53.080;7.428;2024-03-08T15:24:13;8.60;99.90
13186;DHT22;6658;53.080;7.428;2024-03-08T15:26:43;8.60;99.90
13186;DHT22;6658;53.080;7.428;2024-03-08T15:29:09;8.60;99.90
13186;DHT22;6658;53.080;7.428;2024-03-08T15:31:35;8.70;99.90
13186;DHT22;6658;53.080;7.428;2024-03-08T15:34:03;8.70;99.90
13186;DHT22;6658;53.080;7.428;2024-03-08T15:36:35;8.60;99.90
13186;DHT22;6658;53.080;7.428;2024-03-08T15:39:10;8.60;99.90
13186;DHT22;6658;53.080;7.428;2024-03-08T15:41:37;8.70;99.90
13186;DHT22;6658;53.080;7.428;2024-03-08T15:44:05;8.70;99.90
13186;DHT22;6658;53.080;7.428;2024-03-08T15:46:41;8.70;99.90
13186;DHT22;6658;53.080;7.428;2024-03-08T15:49:07;8.70;99.90
13186;DHT22;6658;53.080;7.428;2024-03-08T15:51:45;8.70;99.90
13186;DHT22;6658;53.080;7.428;2024-03-08T15:54:11;8.70;99.90
13186;DHT22;6658;53.080;7.428;2024-03-08T15:56:37;8.70;99.90
13186;DHT22;6658;53.080;7.428;2024-03-08T15:59:03;8.60;99.90
13186;DHT22;6658;53.080;7.428;2024-03-08T16:01:34;8.60;99.90
13186;DHT22;6658;53.080;7.428;2024-03-08T16:03:59;8.60;99.90
13186;DHT22;6658;53.080;7.428;2024-03-08T16:06:37;8.60;99.90
13186;DHT22;6658;53.080;7.428;2024-03-08T16:09:08;8.60;99.90
13186;DHT22;6658;53.080;7.428;2024-03-08T16:11:41;8.50;99.90
13186;DHT22;6658;53.080;7.428;2024-03-08T16:14:06;8.50;99.90
13186;DHT22;6658;53.080;7.428;2024-03-08T16:16:39;8.50;99.90
13186;DHT22;6658;53.080;7.428;2024-03-08T16:19:14;8.50;99.90